Airfield :







YOU CAN JOIN US ON...

 
LOGIN :

Register | Disclaimer

   EN    FR    IT 

 









Legend :    VFR   Marginal VFR   IFR   Intensive IFR   Very Intensive IFR
Visi :
Ceiling :
>= 8 km
>= 3000ft
5 to 8 km
1000 to 3000 ft
1500m to 5 km
500 to 1000 ft
800 to 1500m
200 to 500 ft
< 800m
< 200 ft
Symbols :   Thunderstorms  Fog  Heavy snow  Heavy precipitations  Wind > 20 kt






- Airport Elevation : 83 ft


KBHB - Hancock County-Bar Harbor

CURRENT METAR :
  • 221209Z AUTO 18010KT 10SM OVC008 16/14 A2976 RMK AO2

EXPIRED METARs :
  • 221156Z AUTO 18009KT 10SM OVC010 15/14 A2976 RMK AO2 SLP078 70001 T01500139 10150 20117 56010
  • 221056Z AUTO 19009KT 10SM OVC010 15/14 A2976 RMK AO2 SLP079 T01500139
  • 220956Z AUTO 18009KT 10SM OVC010 14/13 A2977 RMK AO2 SLP083 T01440133

TAF KBHB
Valid from the 22 at 12:00 until the 23 at 12:00 UTC


221125Z 2212/2312 20009KT P6SM BKN007
FM221500 21010G18KT 5SM -SHRA BR BKN009
FM221700 22010KT P6SM VCSH BKN020
FM222000 23009KT P6SM BKN035
FM230100 34006KT P6SM BKN070
KZBW FIR / North America



MET'MAP, your aeronautical weather chart ! - Copyright ORBIFLY December 2007 - Disclaimer

ORBIFLY MET'MAP TEAM :

Programming & Development : Alexandra Zaïnal
Concept & original design : Baudouin d'Aumeries
Assistance for programming : Marc-Olivier Méhu
Technical & hardware support : Manuel Goepfert

Contact : metmap@orbifly.com




SOURCES & CREDITS :

   NOAA